出雲空港の過去48時間の天気

出雲空港 (Izumo)

現在時刻: 10/20 03:41 JST (10/19 18:41 UTC) 以下の時間は現地時間です。

過去48時間のMETAR気象情報
時間 風向 風速(m/s) 視程 気温(℃) 湿度(%) 気圧(hPa) 天気現象
19 20:00 北北東 8 10km以上 18 64 1020 弱いしゅう雨
19 19:00 北東 4 10km以上 18 68 1020 弱いしゅう雨
19 18:00 北東 6 10km以上 18 68 1019
19 17:00 東北東 4 10km以上 17 72 1019
19 16:00 4 10km以上 18 68 1018
19 15:00 北北東 7 10km以上 18 64 1018 弱いしゅう雨
19 14:00 6 10km以上 20 56 1017
19 13:00 北北東 7 10km以上 20 60 1017 弱いしゅう雨
19 12:00 6 10km以上 20 56 1017 弱いしゅう雨
19 11:00 北東 4 10km以上 20 60 1017
19 10:00 東北東 4 10km以上 19 68 1017
19 09:00 2 10km以上 17 72 1017
19 08:00 3 10km以上 15 77 1017
19 07:00 南南東 2 10km以上 14 82 1016 周辺でしゅう雨
19 06:30 南南西 2 10km以上 14 82 1016 弱いしゅう雨
19 06:10 南南西 2 10km以上 14 82 1016
18 20:00 南南東 3 10km以上 15 77 1016
18 19:00 不定 1 10km以上 16 72 1015
18 18:00 南南西 2 10km以上 17 68 1015
18 17:00 西南西 5 10km以上 20 53 1014
18 16:00 西南西 7 10km以上 21 46 1014
18 15:00 西 6 10km以上 21 49 1014
18 14:00 西 6 10km以上 22 46 1014
18 13:00 西 5 10km以上 22 50 1014
18 12:00 西 5 10km以上 22 50 1014
18 11:00 北西 2 10km以上 22 53 1015
18 10:00 不定 1 10km以上 19 64 1015
18 09:00 不定 2 10km以上 17 72 1015
18 08:00 3 10km以上 15 82 1015
18 07:00 3 10km以上 13 88 1014
18 06:30 3 10km以上 13 82 1014
18 06:10 南南東 5 10km以上 12 88 1014
RJOC 191100Z 02015KT 9999 -SHRA FEW020 SCT040 BKN050 18/11 Q1020
RJOC 191000Z 04008KT 9999 -SHRA FEW020 SCT025 BKN030 18/12 Q1020
RJOC 190900Z 04011KT 9999 FEW020 SCT030 BKN060 18/12 Q1019
RJOC 190800Z 06007KT 9999 FEW020 FEW035TCU SCT060 17/12 Q1019
RJOC 190700Z 09008KT 9999 FEW020 BKN080 18/12 Q1018
RJOC 190600Z 02013KT 9999 -SHRA FEW015 FEW030TCU BKN060 18/11 Q1018
RJOC 190500Z 01012KT 9999 FEW025 FEW030CB SCT035 BKN050 20/11 Q1017
RJOC 190400Z 03013KT 9999 -SHRA FEW025 FEW030TCU SCT035 BKN090 20/12 Q1017
RJOC 190300Z 01012KT 9999 -SHRA FEW025 SCT030 FEW030TCU 20/11 Q1017
RJOC 190200Z 05007KT 9999 FEW025 FEW030TCU SCT035 20/12 Q1017
RJOC 190100Z 06007KT 9999 FEW025 FEW030TCU SCT070 19/13 Q1017
RJOC 190000Z 35003KT 310V030 9999 FEW020 FEW025TCU 17/12 Q1017
RJOC 182300Z 17005KT 9999 FEW008 FEW025TCU 15/11 Q1017
RJOC 182200Z 15003KT 120V190 9999 VCSH FEW020 SCT070 BKN120 14/11 Q1016
RJOC 182130Z 21004KT 130V270 9999 -SHRA FEW020 SCT045 BKN070 14/11 Q1016
RJOC 182110Z 20004KT 110V240 9999 FEW020 FEW025TCU SCT060 BKN100 14/11 Q1016 RMK 1CU020 1TCU025 3SC060 6AC100 A3001 TCU 40KM NE
RJOC 181100Z 15006KT 9999 FEW020 SCT040 15/11 Q1016
RJOC 181000Z VRB02KT 9999 FEW025 16/11 Q1015
RJOC 180900Z 21003KT 9999 FEW025 SCT120 17/11 Q1015
RJOC 180800Z 25009KT 9999 FEW025 FEW035TCU 20/10 Q1014
RJOC 180700Z 24013KT 9999 FEW030 FEW035TCU 21/09 Q1014
RJOC 180600Z 26012KT 9999 FEW030 FEW035TCU 21/10 Q1014
RJOC 180500Z 27012KT 9999 FEW030 22/10 Q1014
RJOC 180400Z 26010KT 9999 FEW030 SCT040 22/11 Q1014
RJOC 180300Z 26009KT 9999 FEW030 SCT035 22/11 Q1014
RJOC 180200Z 32004KT 240V030 9999 FEW025 SCT030 22/12 Q1015
RJOC 180100Z VRB02KT 9999 FEW025 19/12 Q1015
RJOC 180000Z VRB04KT 9999 FEW030 17/12 Q1015
RJOC 172300Z 18006KT 9999 FEW030 15/12 Q1015
RJOC 172200Z 19006KT 9999 FEW030 SCT/// 13/11 Q1014
RJOC 172130Z 19006KT 9999 FEW030 SCT/// 13/10 Q1014
RJOC 172110Z 16009KT 9999 FEW030 12/10 Q1014 RMK 1CU030 A2996